sensor_id;sensor_type;location;lat;lon;timestamp;P1;durP1;ratioP1;P2;durP2;ratioP2
19605;SDS011;9950;50.168;8.210;2024-03-23T00:55:46;35.25;;;16.48;;
19605;SDS011;9950;50.168;8.210;2024-03-23T00:58:14;36.42;;;16.58;;
19605;SDS011;9950;50.168;8.210;2024-03-23T01:00:40;44.85;;;20.13;;
19605;SDS011;9950;50.168;8.210;2024-03-23T01:03:07;51.95;;;21.33;;
19605;SDS011;9950;50.168;8.210;2024-03-23T01:05:33;45.00;;;20.42;;
19605;SDS011;9950;50.168;8.210;2024-03-23T01:08:00;43.33;;;18.63;;
19605;SDS011;9950;50.168;8.210;2024-03-23T01:10:27;35.72;;;16.60;;
19605;SDS011;9950;50.168;8.210;2024-03-23T01:12:55;32.38;;;15.70;;
19605;SDS011;9950;50.168;8.210;2024-03-23T01:15:21;39.63;;;17.58;;
19605;SDS011;9950;50.168;8.210;2024-03-23T01:17:48;34.92;;;15.93;;
19605;SDS011;9950;50.168;8.210;2024-03-23T01:20:15;33.58;;;15.27;;
19605;SDS011;9950;50.168;8.210;2024-03-23T01:22:42;31.10;;;14.32;;
19605;SDS011;9950;50.168;8.210;2024-03-23T01:25:08;31.65;;;13.77;;
19605;SDS011;9950;50.168;8.210;2024-03-23T01:27:35;37.55;;;16.73;;
19605;SDS011;9950;50.168;8.210;2024-03-23T01:30:03;46.53;;;19.88;;
19605;SDS011;9950;50.168;8.210;2024-03-23T01:32:30;43.78;;;20.35;;
19605;SDS011;9950;50.168;8.210;2024-03-23T01:34:57;38.03;;;16.48;;
19605;SDS011;9950;50.168;8.210;2024-03-23T01:37:24;43.97;;;18.50;;
19605;SDS011;9950;50.168;8.210;2024-03-23T01:39:50;49.38;;;20.17;;
19605;SDS011;9950;50.168;8.210;2024-03-23T01:42:17;37.38;;;17.40;;
19605;SDS011;9950;50.168;8.210;2024-03-23T01:44:43;50.63;;;21.08;;
19605;SDS011;9950;50.168;8.210;2024-03-23T01:47:11;30.73;;;14.73;;
19605;SDS011;9950;50.168;8.210;2024-03-23T01:49:37;37.72;;;17.55;;
19605;SDS011;9950;50.168;8.210;2024-03-23T01:52:05;39.97;;;16.00;;
19605;SDS011;9950;50.168;8.210;2024-03-23T01:54:31;36.90;;;16.30;;
19605;SDS011;9950;50.168;8.210;2024-03-23T01:56:58;36.00;;;16.45;;
19605;SDS011;9950;50.168;8.210;2024-03-23T01:59:25;48.22;;;19.52;;
19605;SDS011;9950;50.168;8.210;2024-03-23T02:01:52;48.03;;;20.05;;
19605;SDS011;9950;50.168;8.210;2024-03-23T02:04:19;41.90;;;18.95;;
19605;SDS011;9950;50.168;8.210;2024-03-23T02:06:47;43.20;;;20.25;;
19605;SDS011;9950;50.168;8.210;2024-03-23T02:09:13;45.03;;;19.60;;
19605;SDS011;9950;50.168;8.210;2024-03-23T02:11:40;47.80;;;19.75;;
19605;SDS011;9950;50.168;8.210;2024-03-23T02:14:06;48.15;;;21.75;;
19605;SDS011;9950;50.168;8.210;2024-03-23T02:16:34;55.97;;;22.52;;
19605;SDS011;9950;50.168;8.210;2024-03-23T02:19:00;50.10;;;21.55;;
19605;SDS011;9950;50.168;8.210;2024-03-23T02:21:28;48.85;;;21.40;;
19605;SDS011;9950;50.168;8.210;2024-03-23T02:23:58;44.22;;;18.90;;
19605;SDS011;9950;50.168;8.210;2024-03-23T02:26:25;43.17;;;18.17;;
19605;SDS011;9950;50.168;8.210;2024-03-23T02:28:51;45.92;;;20.45;;
19605;SDS011;9950;50.168;8.210;2024-03-23T02:31:18;41.30;;;17.52;;
19605;SDS011;9950;50.168;8.210;2024-03-23T02:33:44;43.65;;;18.33;;
19605;SDS011;9950;50.168;8.210;2024-03-23T02:36:12;43.50;;;20.08;;
19605;SDS011;9950;50.168;8.210;2024-03-23T02:38:38;45.47;;;18.65;;
19605;SDS011;9950;50.168;8.210;2024-03-23T02:41:06;44.08;;;17.65;;
19605;SDS011;9950;50.168;8.210;2024-03-23T02:43:32;45.53;;;19.83;;
19605;SDS011;9950;50.168;8.210;2024-03-23T02:45:59;48.75;;;19.38;;
19605;SDS011;9950;50.168;8.210;2024-03-23T02:48:26;46.35;;;18.95;;
19605;SDS011;9950;50.168;8.210;2024-03-23T02:50:53;47.15;;;19.65;;
19605;SDS011;9950;50.168;8.210;2024-03-23T02:53:19;49.65;;;21.42;;
19605;SDS011;9950;50.168;8.210;2024-03-23T02:55:46;54.65;;;22.08;;
19605;SDS011;9950;50.168;8.210;2024-03-23T02:58:14;47.47;;;19.45;;
19605;SDS011;9950;50.168;8.210;2024-03-23T03:00:41;48.55;;;20.30;;
19605;SDS011;9950;50.168;8.210;2024-03-23T03:03:07;51.83;;;20.98;;
19605;SDS011;9950;50.168;8.210;2024-03-23T03:05:34;58.40;;;22.90;;
19605;SDS011;9950;50.168;8.210;2024-03-23T03:08:00;48.38;;;21.33;;
19605;SDS011;9950;50.168;8.210;2024-03-23T03:10:27;60.00;;;25.02;;
19605;SDS011;9950;50.168;8.210;2024-03-23T03:12:54;59.67;;;23.23;;
19605;SDS011;9950;50.168;8.210;2024-03-23T03:15:22;57.88;;;24.23;;
19605;SDS011;9950;50.168;8.210;2024-03-23T03:17:48;56.80;;;23.95;;
19605;SDS011;9950;50.168;8.210;2024-03-23T03:20:15;63.08;;;25.00;;
19605;SDS011;9950;50.168;8.210;2024-03-23T03:22:42;64.70;;;24.15;;
19605;SDS011;9950;50.168;8.210;2024-03-23T03:25:10;61.38;;;23.90;;
19605;SDS011;9950;50.168;8.210;2024-03-23T03:27:36;64.05;;;25.48;;
19605;SDS011;9950;50.168;8.210;2024-03-23T03:30:03;71.63;;;28.60;;
19605;SDS011;9950;50.168;8.210;2024-03-23T03:32:32;52.72;;;19.50;;
19605;SDS011;9950;50.168;8.210;2024-03-23T03:34:59;37.55;;;14.10;;
19605;SDS011;9950;50.168;8.210;2024-03-23T03:37:25;31.55;;;12.95;;
19605;SDS011;9950;50.168;8.210;2024-03-23T03:39:52;28.73;;;12.90;;
19605;SDS011;9950;50.168;8.210;2024-03-23T03:42:18;29.35;;;11.60;;
19605;SDS011;9950;50.168;8.210;2024-03-23T03:44:46;21.20;;;9.90;;
19605;SDS011;9950;50.168;8.210;2024-03-23T03:47:12;14.45;;;7.38;;
19605;SDS011;9950;50.168;8.210;2024-03-23T03:49:40;16.77;;;7.05;;
19605;SDS011;9950;50.168;8.210;2024-03-23T03:52:06;8.95;;;4.95;;
19605;SDS011;9950;50.168;8.210;2024-03-23T03:54:33;8.38;;;4.18;;
19605;SDS011;9950;50.168;8.210;2024-03-23T03:56:59;8.63;;;3.88;;
19605;SDS011;9950;50.168;8.210;2024-03-23T03:59:27;5.95;;;3.45;;
19605;SDS011;9950;50.168;8.210;2024-03-23T04:01:53;5.47;;;3.70;;
19605;SDS011;9950;50.168;8.210;2024-03-23T04:04:20;4.90;;;3.47;;
19605;SDS011;9950;50.168;8.210;2024-03-23T04:06:48;5.25;;;3.10;;
19605;SDS011;9950;50.168;8.210;2024-03-23T04:09:16;3.70;;;2.50;;
19605;SDS011;9950;50.168;8.210;2024-03-23T04:11:42;3.55;;;2.63;;
19605;SDS011;9950;50.168;8.210;2024-03-23T04:14:09;3.65;;;2.78;;
19605;SDS011;9950;50.168;8.210;2024-03-23T04:16:35;5.22;;;3.30;;
19605;SDS011;9950;50.168;8.210;2024-03-23T04:19:02;5.65;;;3.65;;
19605;SDS011;9950;50.168;8.210;2024-03-23T04:21:29;4.18;;;3.08;;
19605;SDS011;9950;50.168;8.210;2024-03-23T04:23:57;4.97;;;3.10;;
19605;SDS011;9950;50.168;8.210;2024-03-23T04:26:23;5.13;;;3.25;;
19605;SDS011;9950;50.168;8.210;2024-03-23T04:28:50;4.50;;;3.13;;
19605;SDS011;9950;50.168;8.210;2024-03-23T04:31:17;4.80;;;2.85;;
19605;SDS011;9950;50.168;8.210;2024-03-23T04:33:43;5.70;;;3.05;;
19605;SDS011;9950;50.168;8.210;2024-03-23T04:36:11;5.53;;;3.53;;
19605;SDS011;9950;50.168;8.210;2024-03-23T04:38:37;4.70;;;3.35;;
19605;SDS011;9950;50.168;8.210;2024-03-23T04:41:05;4.55;;;3.00;;
19605;SDS011;9950;50.168;8.210;2024-03-23T04:43:32;6.72;;;3.65;;
19605;SDS011;9950;50.168;8.210;2024-03-23T04:46:00;7.20;;;3.85;;
19605;SDS011;9950;50.168;8.210;2024-03-23T04:48:26;5.35;;;3.78;;
19605;SDS011;9950;50.168;8.210;2024-03-23T04:50:54;6.72;;;4.38;;
19605;SDS011;9950;50.168;8.210;2024-03-23T04:53:23;7.20;;;4.38;;
19605;SDS011;9950;50.168;8.210;2024-03-23T04:55:53;8.02;;;4.30;;
19605;SDS011;9950;50.168;8.210;2024-03-23T04:58:21;5.85;;;4.15;;
19605;SDS011;9950;50.168;8.210;2024-03-23T05:00:48;6.30;;;3.97;;
19605;SDS011;9950;50.168;8.210;2024-03-23T05:03:15;7.82;;;4.68;;
19605;SDS011;9950;50.168;8.210;2024-03-23T05:05:42;8.57;;;4.45;;
19605;SDS011;9950;50.168;8.210;2024-03-23T05:08:08;8.10;;;5.13;;
19605;SDS011;9950;50.168;8.210;2024-03-23T05:10:35;9.88;;;5.28;;
19605;SDS011;9950;50.168;8.210;2024-03-23T05:13:01;7.32;;;4.82;;
19605;SDS011;9950;50.168;8.210;2024-03-23T05:15:29;8.88;;;5.32;;
19605;SDS011;9950;50.168;8.210;2024-03-23T05:17:56;9.88;;;5.47;;
19605;SDS011;9950;50.168;8.210;2024-03-23T05:20:23;6.70;;;4.28;;
19605;SDS011;9950;50.168;8.210;2024-03-23T05:22:49;5.30;;;3.95;;
19605;SDS011;9950;50.168;8.210;2024-03-23T05:25:16;5.60;;;3.90;;
19605;SDS011;9950;50.168;8.210;2024-03-23T05:27:42;4.95;;;3.70;;
19605;SDS011;9950;50.168;8.210;2024-03-23T05:30:10;5.93;;;3.60;;
19605;SDS011;9950;50.168;8.210;2024-03-23T05:32:38;8.80;;;4.63;;
19605;SDS011;9950;50.168;8.210;2024-03-23T05:35:07;4.97;;;3.55;;
19605;SDS011;9950;50.168;8.210;2024-03-23T05:37:33;6.60;;;3.63;;
19605;SDS011;9950;50.168;8.210;2024-03-23T05:40:00;2.90;;;2.03;;
19605;SDS011;9950;50.168;8.210;2024-03-23T05:42:27;2.75;;;1.80;;
19605;SDS011;9950;50.168;8.210;2024-03-23T05:44:54;2.40;;;1.90;;
19605;SDS011;9950;50.168;8.210;2024-03-23T05:47:20;1.95;;;1.42;;
19605;SDS011;9950;50.168;8.210;2024-03-23T05:49:49;2.90;;;1.90;;
19605;SDS011;9950;50.168;8.210;2024-03-23T05:52:16;1.77;;;1.50;;
19605;SDS011;9950;50.168;8.210;2024-03-23T05:54:46;2.80;;;1.70;;
19605;SDS011;9950;50.168;8.210;2024-03-23T05:57:12;2.72;;;1.60;;
19605;SDS011;9950;50.168;8.210;2024-03-23T05:59:39;4.57;;;2.60;;
19605;SDS011;9950;50.168;8.210;2024-03-23T06:02:05;3.47;;;1.95;;
19605;SDS011;9950;50.168;8.210;2024-03-23T06:04:35;3.58;;;2.00;;
19605;SDS011;9950;50.168;8.210;2024-03-23T06:07:03;4.05;;;2.10;;
19605;SDS011;9950;50.168;8.210;2024-03-23T06:09:31;4.03;;;2.00;;
19605;SDS011;9950;50.168;8.210;2024-03-23T06:11:57;4.35;;;2.30;;
19605;SDS011;9950;50.168;8.210;2024-03-23T06:14:24;4.20;;;2.20;;
19605;SDS011;9950;50.168;8.210;2024-03-23T06:16:51;7.20;;;3.13;;
19605;SDS011;9950;50.168;8.210;2024-03-23T06:19:18;4.25;;;3.05;;
19605;SDS011;9950;50.168;8.210;2024-03-23T06:21:44;4.43;;;2.53;;
19605;SDS011;9950;50.168;8.210;2024-03-23T06:24:12;3.95;;;2.15;;
19605;SDS011;9950;50.168;8.210;2024-03-23T06:26:38;4.22;;;2.60;;
19605;SDS011;9950;50.168;8.210;2024-03-23T06:29:05;8.02;;;3.15;;
19605;SDS011;9950;50.168;8.210;2024-03-23T06:31:32;8.07;;;3.00;;
19605;SDS011;9950;50.168;8.210;2024-03-23T06:33:59;8.55;;;3.15;;
19605;SDS011;9950;50.168;8.210;2024-03-23T06:36:26;9.95;;;4.18;;
19605;SDS011;9950;50.168;8.210;2024-03-23T06:38:55;11.35;;;5.28;;
19605;SDS011;9950;50.168;8.210;2024-03-23T06:41:23;15.25;;;3.90;;
19605;SDS011;9950;50.168;8.210;2024-03-23T06:43:50;9.15;;;4.10;;
19605;SDS011;9950;50.168;8.210;2024-03-23T06:46:16;9.90;;;3.60;;
19605;SDS011;9950;50.168;8.210;2024-03-23T06:48:44;9.93;;;4.20;;
19605;SDS011;9950;50.168;8.210;2024-03-23T06:51:10;10.13;;;3.55;;
19605;SDS011;9950;50.168;8.210;2024-03-23T06:53:37;10.32;;;3.28;;
19605;SDS011;9950;50.168;8.210;2024-03-23T06:56:04;9.82;;;3.38;;
19605;SDS011;9950;50.168;8.210;2024-03-23T06:58:33;9.07;;;4.00;;
19605;SDS011;9950;50.168;8.210;2024-03-23T07:00:59;11.73;;;5.03;;
19605;SDS011;9950;50.168;8.210;2024-03-23T07:03:26;10.23;;;4.70;;
19605;SDS011;9950;50.168;8.210;2024-03-23T07:05:52;13.27;;;5.38;;
19605;SDS011;9950;50.168;8.210;2024-03-23T07:08:20;9.48;;;5.70;;
19605;SDS011;9950;50.168;8.210;2024-03-23T07:10:47;13.45;;;6.25;;
19605;SDS011;9950;50.168;8.210;2024-03-23T07:13:14;14.48;;;7.70;;
19605;SDS011;9950;50.168;8.210;2024-03-23T07:15:43;15.13;;;7.03;;
19605;SDS011;9950;50.168;8.210;2024-03-23T07:18:10;12.43;;;6.72;;
19605;SDS011;9950;50.168;8.210;2024-03-23T07:20:36;17.15;;;6.32;;
19605;SDS011;9950;50.168;8.210;2024-03-23T07:23:03;15.48;;;7.47;;
19605;SDS011;9950;50.168;8.210;2024-03-23T07:25:30;17.35;;;8.23;;
19605;SDS011;9950;50.168;8.210;2024-03-23T07:27:57;14.15;;;7.07;;
19605;SDS011;9950;50.168;8.210;2024-03-23T07:30:23;12.73;;;6.53;;
19605;SDS011;9950;50.168;8.210;2024-03-23T07:32:52;12.68;;;6.18;;
19605;SDS011;9950;50.168;8.210;2024-03-23T07:35:18;16.50;;;7.40;;
19605;SDS011;9950;50.168;8.210;2024-03-23T07:37:45;16.73;;;6.32;;
19605;SDS011;9950;50.168;8.210;2024-03-23T07:40:12;15.27;;;6.95;;
19605;SDS011;9950;50.168;8.210;2024-03-23T07:42:39;12.25;;;7.10;;
19605;SDS011;9950;50.168;8.210;2024-03-23T07:45:05;11.80;;;7.25;;
19605;SDS011;9950;50.168;8.210;2024-03-23T07:47:34;19.73;;;7.20;;
19605;SDS011;9950;50.168;8.210;2024-03-23T07:50:02;17.38;;;8.55;;
19605;SDS011;9950;50.168;8.210;2024-03-23T07:52:29;20.92;;;8.30;;
19605;SDS011;9950;50.168;8.210;2024-03-23T07:54:55;13.52;;;8.15;;
19605;SDS011;9950;50.168;8.210;2024-03-23T07:57:22;16.67;;;7.07;;
19605;SDS011;9950;50.168;8.210;2024-03-23T07:59:48;16.13;;;7.32;;
19605;SDS011;9950;50.168;8.210;2024-03-23T08:02:17;15.02;;;7.13;;
19605;SDS011;9950;50.168;8.210;2024-03-23T08:04:43;20.75;;;7.28;;
19605;SDS011;9950;50.168;8.210;2024-03-23T08:07:11;14.10;;;6.82;;
19605;SDS011;9950;50.168;8.210;2024-03-23T08:09:37;14.20;;;7.30;;
19605;SDS011;9950;50.168;8.210;2024-03-23T08:12:05;15.65;;;5.78;;
19605;SDS011;9950;50.168;8.210;2024-03-23T08:14:31;15.93;;;7.35;;
19605;SDS011;9950;50.168;8.210;2024-03-23T08:16:58;15.25;;;6.68;;
19605;SDS011;9950;50.168;8.210;2024-03-23T08:19:24;15.95;;;6.45;;
19605;SDS011;9950;50.168;8.210;2024-03-23T08:21:51;16.33;;;6.35;;
19605;SDS011;9950;50.168;8.210;2024-03-23T08:24:20;13.85;;;5.70;;
19605;SDS011;9950;50.168;8.210;2024-03-23T08:26:48;22.17;;;7.70;;
19605;SDS011;9950;50.168;8.210;2024-03-23T08:29:14;17.35;;;6.20;;
19605;SDS011;9950;50.168;8.210;2024-03-23T08:31:41;15.02;;;6.82;;
19605;SDS011;9950;50.168;8.210;2024-03-23T08:34:07;15.18;;;6.18;;
19605;SDS011;9950;50.168;8.210;2024-03-23T08:36:34;17.83;;;7.35;;
19605;SDS011;9950;50.168;8.210;2024-03-23T08:39:01;16.27;;;7.00;;
19605;SDS011;9950;50.168;8.210;2024-03-23T08:41:29;15.73;;;7.20;;
19605;SDS011;9950;50.168;8.210;2024-03-23T08:43:56;15.10;;;6.47;;
19605;SDS011;9950;50.168;8.210;2024-03-23T08:46:22;16.10;;;7.00;;
19605;SDS011;9950;50.168;8.210;2024-03-23T08:48:49;14.50;;;6.53;;
19605;SDS011;9950;50.168;8.210;2024-03-23T08:51:17;14.43;;;6.32;;
19605;SDS011;9950;50.168;8.210;2024-03-23T08:53:44;13.98;;;6.38;;
19605;SDS011;9950;50.168;8.210;2024-03-23T08:56:11;18.65;;;5.90;;
19605;SDS011;9950;50.168;8.210;2024-03-23T08:58:39;15.98;;;6.32;;
19605;SDS011;9950;50.168;8.210;2024-03-23T09:01:06;15.10;;;5.63;;
19605;SDS011;9950;50.168;8.210;2024-03-23T09:03:33;14.45;;;5.57;;
19605;SDS011;9950;50.168;8.210;2024-03-23T09:06:00;12.25;;;5.00;;
19605;SDS011;9950;50.168;8.210;2024-03-23T09:08:27;13.25;;;4.90;;
19605;SDS011;9950;50.168;8.210;2024-03-23T09:10:53;10.35;;;4.72;;
19605;SDS011;9950;50.168;8.210;2024-03-23T09:13:21;13.95;;;5.07;;
19605;SDS011;9950;50.168;8.210;2024-03-23T09:15:48;12.18;;;4.60;;
19605;SDS011;9950;50.168;8.210;2024-03-23T09:18:16;11.52;;;4.30;;
19605;SDS011;9950;50.168;8.210;2024-03-23T09:20:42;9.85;;;4.03;;
19605;SDS011;9950;50.168;8.210;2024-03-23T09:23:09;8.32;;;3.50;;
19605;SDS011;9950;50.168;8.210;2024-03-23T09:25:36;8.60;;;3.03;;
19605;SDS011;9950;50.168;8.210;2024-03-23T09:28:04;8.77;;;2.80;;
19605;SDS011;9950;50.168;8.210;2024-03-23T09:30:31;10.95;;;3.78;;
19605;SDS011;9950;50.168;8.210;2024-03-23T09:33:00;9.52;;;3.17;;
19605;SDS011;9950;50.168;8.210;2024-03-23T09:35:26;8.52;;;2.72;;
19605;SDS011;9950;50.168;8.210;2024-03-23T09:37:53;8.07;;;3.00;;
19605;SDS011;9950;50.168;8.210;2024-03-23T09:40:20;8.60;;;2.70;;
19605;SDS011;9950;50.168;8.210;2024-03-23T09:42:49;9.93;;;3.65;;
19605;SDS011;9950;50.168;8.210;2024-03-23T09:45:16;11.13;;;2.85;;
19605;SDS011;9950;50.168;8.210;2024-03-23T09:47:43;9.95;;;2.67;;
19605;SDS011;9950;50.168;8.210;2024-03-23T09:50:12;8.93;;;2.80;;
19605;SDS011;9950;50.168;8.210;2024-03-23T09:52:39;11.65;;;2.60;;
19605;SDS011;9950;50.168;8.210;2024-03-23T09:55:06;7.90;;;3.58;;
19605;SDS011;9950;50.168;8.210;2024-03-23T09:57:34;12.95;;;2.55;;
19605;SDS011;9950;50.168;8.210;2024-03-23T10:00:01;6.95;;;2.42;;
19605;SDS011;9950;50.168;8.210;2024-03-23T10:02:28;7.68;;;2.60;;
19605;SDS011;9950;50.168;8.210;2024-03-23T10:04:55;8.45;;;2.58;;
19605;SDS011;9950;50.168;8.210;2024-03-23T10:07:25;8.13;;;2.45;;
19605;SDS011;9950;50.168;8.210;2024-03-23T10:09:53;7.03;;;2.30;;
19605;SDS011;9950;50.168;8.210;2024-03-23T10:12:21;9.85;;;2.78;;
19605;SDS011;9950;50.168;8.210;2024-03-23T10:14:47;7.93;;;2.88;;
19605;SDS011;9950;50.168;8.210;2024-03-23T10:17:14;5.43;;;2.33;;
19605;SDS011;9950;50.168;8.210;2024-03-23T10:19:42;6.55;;;3.90;;
19605;SDS011;9950;50.168;8.210;2024-03-23T10:22:12;7.50;;;2.20;;
19605;SDS011;9950;50.168;8.210;2024-03-23T10:24:40;4.38;;;2.30;;
19605;SDS011;9950;50.168;8.210;2024-03-23T10:27:07;5.20;;;2.05;;
19605;SDS011;9950;50.168;8.210;2024-03-23T10:29:33;5.57;;;2.13;;
19605;SDS011;9950;50.168;8.210;2024-03-23T10:32:09;6.43;;;2.22;;
19605;SDS011;9950;50.168;8.210;2024-03-23T10:34:36;10.55;;;3.75;;
19605;SDS011;9950;50.168;8.210;2024-03-23T10:37:03;6.65;;;2.00;;
19605;SDS011;9950;50.168;8.210;2024-03-23T10:39:33;7.00;;;2.17;;
19605;SDS011;9950;50.168;8.210;2024-03-23T10:42:05;8.13;;;1.98;;
19605;SDS011;9950;50.168;8.210;2024-03-23T10:44:32;8.40;;;2.13;;
19605;SDS011;9950;50.168;8.210;2024-03-23T10:47:00;10.10;;;3.08;;
19605;SDS011;9950;50.168;8.210;2024-03-23T10:49:26;10.52;;;2.88;;
19605;SDS011;9950;50.168;8.210;2024-03-23T10:51:54;8.75;;;2.33;;
19605;SDS011;9950;50.168;8.210;2024-03-23T10:54:21;8.57;;;3.13;;
19605;SDS011;9950;50.168;8.210;2024-03-23T10:56:48;9.10;;;2.72;;
19605;SDS011;9950;50.168;8.210;2024-03-23T10:59:17;11.20;;;3.85;;
19605;SDS011;9950;50.168;8.210;2024-03-23T11:01:56;13.27;;;4.03;;
19605;SDS011;9950;50.168;8.210;2024-03-23T11:04:32;14.25;;;4.45;;
19605;SDS011;9950;50.168;8.210;2024-03-23T11:06:59;7.78;;;3.40;;
19605;SDS011;9950;50.168;8.210;2024-03-23T11:09:38;8.63;;;3.28;;
19605;SDS011;9950;50.168;8.210;2024-03-23T11:12:15;6.32;;;3.22;;
19605;SDS011;9950;50.168;8.210;2024-03-23T11:14:44;10.90;;;3.13;;
19605;SDS011;9950;50.168;8.210;2024-03-23T11:17:12;11.45;;;3.67;;
19605;SDS011;9950;50.168;8.210;2024-03-23T11:19:38;8.98;;;3.45;;
19605;SDS011;9950;50.168;8.210;2024-03-23T11:22:05;18.05;;;5.07;;
19605;SDS011;9950;50.168;8.210;2024-03-23T11:24:33;10.57;;;3.60;;
19605;SDS011;9950;50.168;8.210;2024-03-23T11:27:00;5.93;;;3.25;;
19605;SDS011;9950;50.168;8.210;2024-03-23T11:29:29;9.25;;;3.17;;
19605;SDS011;9950;50.168;8.210;2024-03-23T11:31:57;9.07;;;3.00;;
19605;SDS011;9950;50.168;8.210;2024-03-23T11:34:24;5.60;;;3.05;;
19605;SDS011;9950;50.168;8.210;2024-03-23T11:36:51;5.65;;;2.80;;
19605;SDS011;9950;50.168;8.210;2024-03-23T11:39:28;7.70;;;3.13;;
19605;SDS011;9950;50.168;8.210;2024-03-23T11:41:56;8.68;;;3.20;;
19605;SDS011;9950;50.168;8.210;2024-03-23T11:44:23;6.95;;;2.70;;
19605;SDS011;9950;50.168;8.210;2024-03-23T11:46:50;7.13;;;3.00;;
19605;SDS011;9950;50.168;8.210;2024-03-23T11:49:22;6.63;;;2.60;;
19605;SDS011;9950;50.168;8.210;2024-03-23T11:51:49;7.72;;;3.60;;
19605;SDS011;9950;50.168;8.210;2024-03-23T11:54:16;5.30;;;2.83;;
19605;SDS011;9950;50.168;8.210;2024-03-23T11:56:53;6.35;;;2.78;;
19605;SDS011;9950;50.168;8.210;2024-03-23T11:59:29;6.47;;;2.58;;
19605;SDS011;9950;50.168;8.210;2024-03-23T12:01:56;7.45;;;3.10;;
19605;SDS011;9950;50.168;8.210;2024-03-23T12:04:26;5.80;;;2.40;;
19605;SDS011;9950;50.168;8.210;2024-03-23T12:07:08;8.27;;;2.65;;
19605;SDS011;9950;50.168;8.210;2024-03-23T12:09:35;5.57;;;2.42;;
19605;SDS011;9950;50.168;8.210;2024-03-23T12:12:05;8.90;;;2.42;;
19605;SDS011;9950;50.168;8.210;2024-03-23T12:14:31;6.22;;;2.30;;
19605;SDS011;9950;50.168;8.210;2024-03-23T12:17:06;10.30;;;2.33;;
19605;SDS011;9950;50.168;8.210;2024-03-23T12:19:34;9.75;;;2.60;;
19605;SDS011;9950;50.168;8.210;2024-03-23T12:22:02;5.90;;;2.70;;
19605;SDS011;9950;50.168;8.210;2024-03-23T12:24:28;8.70;;;2.70;;
19605;SDS011;9950;50.168;8.210;2024-03-23T12:26:59;5.65;;;2.08;;
19605;SDS011;9950;50.168;8.210;2024-03-23T12:29:26;5.22;;;2.20;;
19605;SDS011;9950;50.168;8.210;2024-03-23T12:31:53;4.80;;;2.17;;
19605;SDS011;9950;50.168;8.210;2024-03-23T12:34:19;4.88;;;2.47;;
19605;SDS011;9950;50.168;8.210;2024-03-23T12:36:47;6.35;;;1.67;;
19605;SDS011;9950;50.168;8.210;2024-03-23T12:39:13;4.47;;;1.55;;
19605;SDS011;9950;50.168;8.210;2024-03-23T12:41:40;1.80;;;1.20;;
19605;SDS011;9950;50.168;8.210;2024-03-23T12:44:07;8.32;;;2.15;;
19605;SDS011;9950;50.168;8.210;2024-03-23T12:46:36;3.22;;;1.48;;
19605;SDS011;9950;50.168;8.210;2024-03-23T12:49:02;3.30;;;1.85;;
19605;SDS011;9950;50.168;8.210;2024-03-23T12:51:30;7.78;;;1.98;;
19605;SDS011;9950;50.168;8.210;2024-03-23T12:53:57;3.53;;;1.90;;
19605;SDS011;9950;50.168;8.210;2024-03-23T12:56:24;4.07;;;2.40;;
19605;SDS011;9950;50.168;8.210;2024-03-23T12:58:51;6.32;;;2.40;;
19605;SDS011;9950;50.168;8.210;2024-03-23T13:01:19;4.55;;;2.30;;
19605;SDS011;9950;50.168;8.210;2024-03-23T13:03:46;4.63;;;2.28;;
19605;SDS011;9950;50.168;8.210;2024-03-23T13:06:14;5.53;;;3.40;;
19605;SDS011;9950;50.168;8.210;2024-03-23T13:08:40;7.00;;;2.70;;
19605;SDS011;9950;50.168;8.210;2024-03-23T13:11:09;3.78;;;2.25;;
19605;SDS011;9950;50.168;8.210;2024-03-23T13:13:35;6.20;;;1.70;;
19605;SDS011;9950;50.168;8.210;2024-03-23T13:16:03;2.38;;;1.05;;
19605;SDS011;9950;50.168;8.210;2024-03-23T13:18:30;1.15;;;1.00;;
19605;SDS011;9950;50.168;8.210;2024-03-23T13:20:57;0.80;;;0.80;;
19605;SDS011;9950;50.168;8.210;2024-03-23T13:23:24;1.15;;;0.88;;
19605;SDS011;9950;50.168;8.210;2024-03-23T13:25:51;0.82;;;0.60;;
19605;SDS011;9950;50.168;8.210;2024-03-23T13:28:19;1.38;;;0.73;;
19605;SDS011;9950;50.168;8.210;2024-03-23T13:30:50;2.45;;;0.70;;
19605;SDS011;9950;50.168;8.210;2024-03-23T13:33:16;1.85;;;0.70;;
19605;SDS011;9950;50.168;8.210;2024-03-23T13:35:48;0.50;;;0.50;;
19605;SDS011;9950;50.168;8.210;2024-03-23T13:38:15;0.98;;;0.63;;
19605;SDS011;9950;50.168;8.210;2024-03-23T13:40:49;1.88;;;0.70;;
19605;SDS011;9950;50.168;8.210;2024-03-23T13:43:16;1.10;;;0.60;;
19605;SDS011;9950;50.168;8.210;2024-03-23T13:45:43;1.17;;;0.70;;
19605;SDS011;9950;50.168;8.210;2024-03-23T13:48:11;1.75;;;0.60;;
19605;SDS011;9950;50.168;8.210;2024-03-23T13:50:37;1.83;;;0.70;;
19605;SDS011;9950;50.168;8.210;2024-03-23T13:53:04;3.92;;;1.25;;
19605;SDS011;9950;50.168;8.210;2024-03-23T13:55:31;1.33;;;0.60;;
19605;SDS011;9950;50.168;8.210;2024-03-23T13:57:58;0.65;;;0.50;;
19605;SDS011;9950;50.168;8.210;2024-03-23T14:00:24;1.48;;;0.65;;
19605;SDS011;9950;50.168;8.210;2024-03-23T14:02:53;1.58;;;0.63;;
19605;SDS011;9950;50.168;8.210;2024-03-23T14:05:19;2.33;;;0.60;;
19605;SDS011;9950;50.168;8.210;2024-03-23T14:07:46;0.70;;;0.50;;
19605;SDS011;9950;50.168;8.210;2024-03-23T14:10:12;1.30;;;0.60;;
19605;SDS011;9950;50.168;8.210;2024-03-23T14:12:39;1.80;;;0.50;;
19605;SDS011;9950;50.168;8.210;2024-03-23T14:15:06;2.67;;;0.50;;
19605;SDS011;9950;50.168;8.210;2024-03-23T14:17:34;1.75;;;0.60;;
19605;SDS011;9950;50.168;8.210;2024-03-23T14:20:02;1.40;;;0.73;;
19605;SDS011;9950;50.168;8.210;2024-03-23T14:22:30;1.63;;;0.60;;
19605;SDS011;9950;50.168;8.210;2024-03-23T14:24:57;1.65;;;0.63;;
19605;SDS011;9950;50.168;8.210;2024-03-23T14:27:24;1.98;;;0.65;;
19605;SDS011;9950;50.168;8.210;2024-03-23T14:29:50;2.58;;;0.90;;
19605;SDS011;9950;50.168;8.210;2024-03-23T14:32:17;1.70;;;0.73;;
19605;SDS011;9950;50.168;8.210;2024-03-23T14:34:43;3.78;;;0.93;;
19605;SDS011;9950;50.168;8.210;2024-03-23T14:37:13;1.27;;;0.70;;
19605;SDS011;9950;50.168;8.210;2024-03-23T14:39:40;1.65;;;0.75;;
19605;SDS011;9950;50.168;8.210;2024-03-23T14:42:09;2.50;;;0.95;;
19605;SDS011;9950;50.168;8.210;2024-03-23T14:44:36;2.90;;;0.70;;
19605;SDS011;9950;50.168;8.210;2024-03-23T14:47:02;2.30;;;0.75;;
19605;SDS011;9950;50.168;8.210;2024-03-23T14:49:30;2.05;;;0.68;;
19605;SDS011;9950;50.168;8.210;2024-03-23T14:51:56;2.72;;;0.75;;
19605;SDS011;9950;50.168;8.210;2024-03-23T14:54:25;2.00;;;0.73;;
19605;SDS011;9950;50.168;8.210;2024-03-23T14:56:51;2.45;;;0.93;;
19605;SDS011;9950;50.168;8.210;2024-03-23T14:59:19;2.63;;;0.85;;
19605;SDS011;9950;50.168;8.210;2024-03-23T15:01:45;3.80;;;1.13;;
19605;SDS011;9950;50.168;8.210;2024-03-23T15:04:12;1.83;;;0.95;;
19605;SDS011;9950;50.168;8.210;2024-03-23T15:06:38;2.97;;;0.70;;
19605;SDS011;9950;50.168;8.210;2024-03-23T15:09:07;2.67;;;0.70;;
19605;SDS011;9950;50.168;8.210;2024-03-23T15:11:37;3.92;;;0.98;;
19605;SDS011;9950;50.168;8.210;2024-03-23T15:14:04;2.05;;;0.90;;
19605;SDS011;9950;50.168;8.210;2024-03-23T15:16:32;2.15;;;0.93;;
19605;SDS011;9950;50.168;8.210;2024-03-23T15:18:59;2.78;;;1.00;;
19605;SDS011;9950;50.168;8.210;2024-03-23T15:21:25;3.30;;;0.98;;
19605;SDS011;9950;50.168;8.210;2024-03-23T15:23:52;4.30;;;0.90;;
19605;SDS011;9950;50.168;8.210;2024-03-23T15:26:18;2.13;;;1.00;;
19605;SDS011;9950;50.168;8.210;2024-03-23T15:28:48;4.15;;;1.08;;
19605;SDS011;9950;50.168;8.210;2024-03-23T15:31:34;2.40;;;0.90;;
19605;SDS011;9950;50.168;8.210;2024-03-23T15:34:02;2.03;;;1.08;;
19605;SDS011;9950;50.168;8.210;2024-03-23T15:36:29;2.55;;;0.90;;
19605;SDS011;9950;50.168;8.210;2024-03-23T15:38:56;3.35;;;0.80;;
19605;SDS011;9950;50.168;8.210;2024-03-23T15:41:23;3.30;;;1.17;;
19605;SDS011;9950;50.168;8.210;2024-03-23T15:43:51;4.05;;;0.80;;
19605;SDS011;9950;50.168;8.210;2024-03-23T15:46:18;2.30;;;1.10;;
19605;SDS011;9950;50.168;8.210;2024-03-23T15:48:45;2.40;;;1.15;;